Time;durP1;ratioP1;P1;durP2;ratioP2;P2;SDS_P1;SDS_P2;PMS_P1;PMS_P2;Temp;Humidity;BMP_temperature;BMP_pressure;BME280_temperature;BME280_humidity;BME280_pressure;Samples;Min_cycle;Max_cycle;Signal;HPM_P1;HPM_P2
2022/08/19 00:00:17;;;;;;;7.43;5.13;;;;;;;;;;4998025;28;20062;-79
2022/08/19 00:03:02;;;;;;;5.43;4.60;;;;;;;;;;4996136;28;20046;-81
2022/08/19 00:05:48;;;;;;;10.15;4.00;;;;;;;;;;4995140;28;20050;-79
2022/08/19 00:08:34;;;;;;;4.95;3.55;;;;;;;;;;5002317;28;20398;-80
2022/08/19 00:11:20;;;;;;;6.97;3.65;;;;;;;;;;4994994;28;20042;-82
2022/08/19 00:14:09;;;;;;;6.75;3.90;;;;;;;;;;4995134;28;20068;-81
2022/08/19 00:16:55;;;;;;;8.05;3.92;;;;;;;;;;4995123;28;20405;-81
2022/08/19 00:19:43;;;;;;;6.40;3.97;;;;;;;;;;5001572;28;20058;-81
2022/08/19 00:22:29;;;;;;;8.73;4.35;;;;;;;;;;4995137;28;20050;-80
2022/08/19 00:25:15;;;;;;;6.88;3.90;;;;;;;;;;5001534;28;20047;-81
2022/08/19 00:28:01;;;;;;;5.28;3.50;;;;;;;;;;4995118;28;20485;-81
2022/08/19 00:30:47;;;;;;;4.95;3.95;;;;;;;;;;4995101;28;20050;-81
2022/08/19 00:33:33;;;;;;;7.55;4.18;;;;;;;;;;4994732;28;20054;-81
2022/08/19 00:36:19;;;;;;;8.77;4.18;;;;;;;;;;4995004;28;20458;-80
2022/08/19 00:39:04;;;;;;;8.18;4.70;;;;;;;;;;5001657;28;20046;-80
2022/08/19 00:41:51;;;;;;;9.80;4.80;;;;;;;;;;4995067;28;20046;-80
2022/08/19 00:44:36;;;;;;;8.20;4.80;;;;;;;;;;4987179;28;20489;-81
2022/08/19 00:47:22;;;;;;;7.82;4.43;;;;;;;;;;4994603;28;20047;-82
2022/08/19 00:50:09;;;;;;;5.65;4.50;;;;;;;;;;4986578;28;20046;-81
2022/08/19 00:52:55;;;;;;;14.73;4.82;;;;;;;;;;4995091;28;20046;-81
2022/08/19 00:55:44;;;;;;;9.70;4.47;;;;;;;;;;5001239;28;20047;-82
2022/08/19 00:58:33;;;;;;;8.45;4.20;;;;;;;;;;4994928;28;20050;-79
2022/08/19 01:01:18;;;;;;;7.20;4.53;;;;;;;;;;4994857;28;20054;-81
2022/08/19 01:04:03;;;;;;;5.93;4.30;;;;;;;;;;5001366;28;20508;-83
2022/08/19 01:06:49;;;;;;;8.43;4.13;;;;;;;;;;4995103;28;20050;-82
2022/08/19 01:09:35;;;;;;;5.15;4.20;;;;;;;;;;4994851;28;20046;-80
2022/08/19 01:12:22;;;;;;;9.20;4.78;;;;;;;;;;4994623;28;20058;-81
2022/08/19 01:15:09;;;;;;;8.07;5.80;;;;;;;;;;4994519;28;20054;-80
2022/08/19 01:17:56;;;;;;;8.68;5.68;;;;;;;;;;4994702;28;20050;-80
2022/08/19 01:20:42;;;;;;;11.07;6.15;;;;;;;;;;5001512;28;20429;-81
2022/08/19 01:23:42;;;;;;;13.45;7.15;;;;;;;;;;4994067;28;20047;-81
2022/08/19 01:26:28;;;;;;;12.55;7.90;;;;;;;;;;5001103;28;20046;-79
2022/08/19 01:29:14;;;;;;;13.07;7.53;;;;;;;;;;4994299;28;20507;-81
2022/08/19 01:32:01;;;;;;;14.57;8.32;;;;;;;;;;4995127;28;20058;-80
2022/08/19 01:34:46;;;;;;;12.75;7.72;;;;;;;;;;4995213;28;20043;-82
2022/08/19 01:37:46;;;;;;;15.52;8.85;;;;;;;;;;5001004;28;20050;-80
2022/08/19 01:40:33;;;;;;;12.93;8.32;;;;;;;;;;4994643;28;20035;-81
2022/08/19 01:43:19;;;;;;;14.15;7.75;;;;;;;;;;4993974;28;20042;-81
2022/08/19 01:46:05;;;;;;;12.00;6.28;;;;;;;;;;4994582;28;20042;-80
2022/08/19 01:48:49;;;;;;;9.27;6.40;;;;;;;;;;4994156;28;20050;-81
2022/08/19 01:51:37;;;;;;;13.68;6.82;;;;;;;;;;4994395;28;20047;-80
2022/08/19 01:54:24;;;;;;;10.18;6.57;;;;;;;;;;5000876;28;20397;-80
2022/08/19 01:57:12;;;;;;;11.48;6.15;;;;;;;;;;5000170;28;20046;-81
2022/08/19 01:59:57;;;;;;;15.23;6.78;;;;;;;;;;4994516;28;20058;-82
2022/08/19 02:02:43;;;;;;;10.27;6.68;;;;;;;;;;5002117;28;20051;-83
2022/08/19 02:05:29;;;;;;;12.57;7.47;;;;;;;;;;4995216;28;20505;-80
2022/08/19 02:08:14;;;;;;;12.60;6.90;;;;;;;;;;4994475;28;20043;-80
2022/08/19 02:10:59;;;;;;;11.15;6.60;;;;;;;;;;4989003;28;20409;-81
2022/08/19 02:13:45;;;;;;;11.70;7.03;;;;;;;;;;4995758;28;20050;-80
2022/08/19 02:16:31;;;;;;;11.25;6.78;;;;;;;;;;4994399;28;20043;-83
2022/08/19 02:19:16;;;;;;;11.20;7.03;;;;;;;;;;4992170;28;20038;-80
2022/08/19 02:22:02;;;;;;;10.38;6.72;;;;;;;;;;4994361;28;20043;-82
2022/08/19 02:24:47;;;;;;;10.43;6.53;;;;;;;;;;4986854;28;20050;-81
2022/08/19 02:27:33;;;;;;;14.05;7.55;;;;;;;;;;5003124;28;20370;-82
2022/08/19 02:30:19;;;;;;;10.45;6.90;;;;;;;;;;4995220;28;20054;-81
2022/08/19 02:33:05;;;;;;;9.02;6.85;;;;;;;;;;4997027;28;20054;-81
2022/08/19 02:35:50;;;;;;;9.13;7.22;;;;;;;;;;5001325;28;20042;-82
2022/08/19 02:38:36;;;;;;;11.45;6.05;;;;;;;;;;5016015;28;20050;-80
2022/08/19 02:41:25;;;;;;;7.20;5.70;;;;;;;;;;5005163;28;20046;-81
2022/08/19 02:44:10;;;;;;;10.40;6.10;;;;;;;;;;4999202;28;20038;-81
2022/08/19 02:46:56;;;;;;;7.72;5.22;;;;;;;;;;5003466;28;20494;-81
2022/08/19 02:49:42;;;;;;;10.88;6.03;;;;;;;;;;4997218;28;20046;-80
2022/08/19 02:52:28;;;;;;;8.43;5.95;;;;;;;;;;5003248;28;20058;-83
2022/08/19 02:55:13;;;;;;;10.25;5.85;;;;;;;;;;5003487;28;20050;-81
2022/08/19 02:57:59;;;;;;;8.93;5.72;;;;;;;;;;4974405;28;20055;-80
2022/08/19 03:00:49;;;;;;;11.00;5.68;;;;;;;;;;4996367;28;20035;-80
2022/08/19 03:03:33;;;;;;;13.77;6.18;;;;;;;;;;5003120;28;20429;-81
2022/08/19 03:06:20;;;;;;;7.00;5.40;;;;;;;;;;5002948;28;20054;-80
2022/08/19 03:09:06;;;;;;;8.27;5.70;;;;;;;;;;4996781;28;20042;-81
2022/08/19 03:11:51;;;;;;;12.13;6.03;;;;;;;;;;4996930;28;20054;-80
2022/08/19 03:14:37;;;;;;;8.40;5.50;;;;;;;;;;5001664;28;20050;-82
2022/08/19 03:17:23;;;;;;;9.02;5.75;;;;;;;;;;4976782;28;20038;-81
2022/08/19 03:20:08;;;;;;;11.70;5.80;;;;;;;;;;4983300;28;20039;-80
2022/08/19 03:22:54;;;;;;;6.40;5.30;;;;;;;;;;4983397;28;20055;-81
2022/08/19 03:25:42;;;;;;;10.13;5.63;;;;;;;;;;4983492;28;20055;-81
2022/08/19 03:28:28;;;;;;;7.47;5.70;;;;;;;;;;4982839;28;20051;-80
2022/08/19 03:31:14;;;;;;;9.63;4.70;;;;;;;;;;4976849;28;20051;-82
2022/08/19 03:33:59;;;;;;;5.03;4.30;;;;;;;;;;4976683;28;20047;-83
2022/08/19 03:36:46;;;;;;;7.45;4.95;;;;;;;;;;4976982;28;20371;-81
2022/08/19 03:39:31;;;;;;;8.50;4.63;;;;;;;;;;4976760;28;20474;-79
2022/08/19 03:42:17;;;;;;;9.57;5.13;;;;;;;;;;4976215;28;20043;-81
2022/08/19 03:45:02;;;;;;;7.75;4.50;;;;;;;;;;4983040;28;20047;-81
2022/08/19 03:47:48;;;;;;;7.22;4.50;;;;;;;;;;4983333;28;20051;-79
2022/08/19 03:50:39;;;;;;;7.00;4.60;;;;;;;;;;4984393;28;20051;-79
2022/08/19 03:53:26;;;;;;;8.60;5.15;;;;;;;;;;5002624;28;20054;-81
2022/08/19 03:56:12;;;;;;;7.47;4.97;;;;;;;;;;4995541;28;20050;-80
2022/08/19 03:58:59;;;;;;;10.30;4.72;;;;;;;;;;4995541;28;20050;-81
2022/08/19 04:01:45;;;;;;;8.55;5.25;;;;;;;;;;4995969;28;20050;-81
2022/08/19 04:04:30;;;;;;;9.63;5.28;;;;;;;;;;4995371;28;20038;-80
2022/08/19 04:07:17;;;;;;;9.02;5.60;;;;;;;;;;5002853;28;20046;-81
2022/08/19 04:10:03;;;;;;;8.68;5.00;;;;;;;;;;4995353;28;20046;-80
2022/08/19 04:12:49;;;;;;;11.68;4.75;;;;;;;;;;4995521;28;20389;-82
2022/08/19 04:15:41;;;;;;;9.65;5.35;;;;;;;;;;5002181;28;20481;-81
2022/08/19 04:18:29;;;;;;;9.25;4.82;;;;;;;;;;4994958;28;20393;-82
2022/08/19 04:21:18;;;;;;;7.22;5.50;;;;;;;;;;5002122;28;20054;-80
2022/08/19 04:24:06;;;;;;;11.40;5.80;;;;;;;;;;4994815;28;20042;-80
2022/08/19 04:26:51;;;;;;;12.45;5.72;;;;;;;;;;5001706;28;20046;-82
2022/08/19 04:29:39;;;;;;;9.05;5.00;;;;;;;;;;4995326;28;20049;-82
2022/08/19 04:32:24;;;;;;;8.23;4.90;;;;;;;;;;4994865;28;20047;-83
2022/08/19 04:35:10;;;;;;;10.13;6.47;;;;;;;;;;4995053;28;20042;-81
2022/08/19 04:37:57;;;;;;;9.70;6.05;;;;;;;;;;4993454;28;20047;-82
2022/08/19 04:43:53;;;;;;;10.98;6.50;;;;;;;;;;4994674;28;20046;-80
2022/08/19 04:46:39;;;;;;;10.30;5.68;;;;;;;;;;4994626;28;20406;-82
2022/08/19 04:49:25;;;;;;;6.93;5.32;;;;;;;;;;5001234;28;20405;-82
2022/08/19 04:52:10;;;;;;;13.45;6.13;;;;;;;;;;4994743;28;20042;-81
2022/08/19 04:54:56;;;;;;;10.25;5.05;;;;;;;;;;4994221;28;20050;-82
2022/08/19 04:57:41;;;;;;;9.55;5.32;;;;;;;;;;4982062;28;20418;-83
2022/08/19 05:00:27;;;;;;;10.25;4.85;;;;;;;;;;4983548;28;20054;-82
2022/08/19 05:03:16;;;;;;;11.18;5.55;;;;;;;;;;4994381;28;20034;-82
2022/08/19 05:06:12;;;;;;;8.82;5.65;;;;;;;;;;4994067;28;20047;-82
2022/08/19 05:08:57;;;;;;;9.23;5.72;;;;;;;;;;4994922;28;20042;-82
2022/08/19 05:11:42;;;;;;;8.68;5.35;;;;;;;;;;4994658;28;20038;-83
2022/08/19 05:14:28;;;;;;;9.18;5.88;;;;;;;;;;4995659;28;20053;-83
2022/08/19 05:17:14;;;;;;;9.40;5.45;;;;;;;;;;4998301;28;20046;-82
2022/08/19 05:23:03;;;;;;;11.88;5.45;;;;;;;;;;4992636;28;20050;-81
2022/08/19 05:25:50;;;;;;;10.10;5.63;;;;;;;;;;5005565;28;20054;-83
2022/08/19 05:28:34;;;;;;;10.30;5.53;;;;;;;;;;4994157;28;20401;-83
2022/08/19 05:31:21;;;;;;;8.73;5.65;;;;;;;;;;4994641;28;20042;-82
2022/08/19 05:34:06;;;;;;;7.80;5.10;;;;;;;;;;4993706;28;20046;-83
2022/08/19 05:36:56;;;;;;;13.95;5.93;;;;;;;;;;5001587;28;20467;-82
2022/08/19 05:39:43;;;;;;;8.68;4.80;;;;;;;;;;4995722;28;20050;-82
2022/08/19 05:42:28;;;;;;;12.13;5.45;;;;;;;;;;4998056;28;20047;-82
2022/08/19 05:45:13;;;;;;;6.68;4.43;;;;;;;;;;4997924;28;20043;-83
2022/08/19 05:47:59;;;;;;;12.40;6.10;;;;;;;;;;4997265;28;20050;-82
2022/08/19 05:50:45;;;;;;;8.55;5.60;;;;;;;;;;4994624;28;20051;-82
2022/08/19 05:53:30;;;;;;;7.07;4.90;;;;;;;;;;4978455;28;20410;-84
2022/08/19 05:56:17;;;;;;;10.25;4.72;;;;;;;;;;4984658;28;20054;-82
2022/08/19 05:59:02;;;;;;;12.80;5.00;;;;;;;;;;4981752;28;20495;-83
2022/08/19 06:01:50;;;;;;;13.40;4.85;;;;;;;;;;4988191;28;20409;-82
2022/08/19 06:04:35;;;;;;;8.60;4.75;;;;;;;;;;4997800;28;20046;-81
2022/08/19 06:07:21;;;;;;;9.45;5.00;;;;;;;;;;4997849;28;20397;-83
2022/08/19 06:10:09;;;;;;;7.95;4.93;;;;;;;;;;4997471;28;20046;-82
2022/08/19 06:12:55;;;;;;;5.53;4.10;;;;;;;;;;4997859;28;20050;-83
2022/08/19 06:15:43;;;;;;;13.05;4.43;;;;;;;;;;4997161;28;20042;-84
2022/08/19 06:18:30;;;;;;;13.07;4.32;;;;;;;;;;4978000;28;20046;-80
2022/08/19 06:21:15;;;;;;;11.60;4.90;;;;;;;;;;5003865;28;20054;-82
2022/08/19 06:24:01;;;;;;;11.68;4.90;;;;;;;;;;5003702;28;20043;-83
2022/08/19 06:26:48;;;;;;;9.20;4.25;;;;;;;;;;4999383;28;20505;-83
2022/08/19 06:29:34;;;;;;;7.65;4.68;;;;;;;;;;4996159;28;20042;-81
2022/08/19 06:32:20;;;;;;;8.93;4.82;;;;;;;;;;4996726;28;20046;-82
2022/08/19 06:35:06;;;;;;;10.23;5.47;;;;;;;;;;4997049;28;20073;-82
2022/08/19 06:37:52;;;;;;;9.02;5.20;;;;;;;;;;4996878;28;20047;-84
2022/08/19 06:40:38;;;;;;;9.00;5.07;;;;;;;;;;4992858;28;20398;-84
2022/08/19 06:43:23;;;;;;;8.90;4.93;;;;;;;;;;5003226;28;20046;-82
2022/08/19 06:46:14;;;;;;;8.05;4.72;;;;;;;;;;5003135;28;20058;-83
2022/08/19 06:48:59;;;;;;;8.88;4.40;;;;;;;;;;4982750;28;20047;-83
2022/08/19 06:51:49;;;;;;;10.45;5.13;;;;;;;;;;4976753;28;20043;-82
2022/08/19 06:54:36;;;;;;;7.93;4.50;;;;;;;;;;4991031;28;20046;-82
2022/08/19 06:57:22;;;;;;;10.10;4.70;;;;;;;;;;4980911;28;20353;-82
2022/08/19 07:00:13;;;;;;;7.72;4.10;;;;;;;;;;4996475;28;20046;-83
2022/08/19 07:03:00;;;;;;;6.05;4.00;;;;;;;;;;4995580;28;20394;-81
2022/08/19 07:05:45;;;;;;;6.30;4.18;;;;;;;;;;5002775;28;20042;-80
2022/08/19 07:08:32;;;;;;;8.88;4.10;;;;;;;;;;5003052;28;20053;-81
2022/08/19 07:11:18;;;;;;;10.98;4.45;;;;;;;;;;4996275;28;20393;-81
2022/08/19 07:14:05;;;;;;;6.97;4.03;;;;;;;;;;4994468;28;20038;-81
2022/08/19 07:16:54;;;;;;;8.30;3.88;;;;;;;;;;4988770;28;20394;-81
2022/08/19 07:19:42;;;;;;;7.40;3.90;;;;;;;;;;4983137;28;20050;-81
2022/08/19 07:22:27;;;;;;;10.13;4.10;;;;;;;;;;4976563;28;20406;-79
2022/08/19 07:25:13;;;;;;;12.88;4.60;;;;;;;;;;4982873;28;20494;-81
2022/08/19 07:27:58;;;;;;;10.95;4.30;;;;;;;;;;4983896;28;20402;-79
2022/08/19 07:30:43;;;;;;;9.40;4.47;;;;;;;;;;4983064;28;20050;-82
2022/08/19 07:33:32;;;;;;;9.77;4.78;;;;;;;;;;4990963;28;20050;-82
2022/08/19 07:36:21;;;;;;;5.72;4.25;;;;;;;;;;5002464;28;20050;-82
2022/08/19 07:39:10;;;;;;;9.07;4.00;;;;;;;;;;5002333;28;20054;-82
2022/08/19 07:41:58;;;;;;;8.38;4.40;;;;;;;;;;5002322;28;20046;-83
2022/08/19 07:44:43;;;;;;;9.95;4.78;;;;;;;;;;4995402;28;20050;-81
2022/08/19 07:47:28;;;;;;;12.25;4.90;;;;;;;;;;5002216;28;20058;-80
2022/08/19 07:50:13;;;;;;;7.85;4.30;;;;;;;;;;5002218;28;20050;-80
2022/08/19 07:52:59;;;;;;;8.77;4.72;;;;;;;;;;4996062;28;20095;-82
2022/08/19 07:55:44;;;;;;;8.00;4.75;;;;;;;;;;5002527;28;20398;-80
2022/08/19 07:58:33;;;;;;;9.00;4.97;;;;;;;;;;5001145;28;20046;-80
2022/08/19 08:01:22;;;;;;;10.68;4.53;;;;;;;;;;5004695;28;20046;-80
2022/08/19 08:10:16;;;;;;;12.23;5.30;;;;;;;;;;4983081;28;20043;-82
2022/08/19 08:13:02;;;;;;;9.25;4.28;;;;;;;;;;4975766;28;20054;-83
2022/08/19 08:15:48;;;;;;;11.13;4.40;;;;;;;;;;4982123;28;20046;-82
2022/08/19 08:18:41;;;;;;;9.15;4.80;;;;;;;;;;4967864;28;20055;-82
2022/08/19 08:21:26;;;;;;;9.02;4.55;;;;;;;;;;4975514;28;20386;-82
2022/08/19 08:24:12;;;;;;;5.85;4.40;;;;;;;;;;4977621;28;20043;-81
2022/08/19 08:26:59;;;;;;;8.45;4.05;;;;;;;;;;4992033;28;20039;-83
2022/08/19 08:29:44;;;;;;;8.68;4.43;;;;;;;;;;4994196;28;20042;-79
2022/08/19 08:32:30;;;;;;;6.90;4.30;;;;;;;;;;4994219;28;20046;-82
2022/08/19 08:35:19;;;;;;;10.20;4.55;;;;;;;;;;5001160;28;20058;-81
2022/08/19 08:38:04;;;;;;;7.28;4.10;;;;;;;;;;5002004;28;20046;-82
2022/08/19 08:40:56;;;;;;;10.18;3.80;;;;;;;;;;4994593;28;20038;-82
2022/08/19 08:43:46;;;;;;;8.23;4.85;;;;;;;;;;4988200;28;20038;-80
2022/08/19 08:46:48;;;;;;;10.20;5.78;;;;;;;;;;4993217;28;20043;-81
2022/08/19 08:49:43;;;;;;;9.27;4.88;;;;;;;;;;4980401;28;20042;-81
2022/08/19 08:52:35;;;;;;;8.88;3.90;;;;;;;;;;4982467;28;20043;-83
2022/08/19 08:55:26;;;;;;;7.28;4.25;;;;;;;;;;4991815;28;20054;-82
2022/08/19 08:58:28;;;;;;;8.85;4.95;;;;;;;;;;4996926;28;20043;-81
2022/08/19 09:01:13;;;;;;;10.73;4.55;;;;;;;;;;4991545;28;20046;-79
2022/08/19 09:03:59;;;;;;;8.32;4.45;;;;;;;;;;4976430;28;20054;-83
2022/08/19 09:06:44;;;;;;;6.38;4.60;;;;;;;;;;4994023;28;20050;-82
2022/08/19 09:09:41;;;;;;;7.35;3.85;;;;;;;;;;4991911;28;20039;-85
2022/08/19 09:13:00;;;;;;;9.63;3.38;;;;;;;;;;4985463;28;20055;-85
2022/08/19 09:15:57;;;;;;;5.22;3.75;;;;;;;;;;5000070;28;20046;-84
2022/08/19 09:18:52;;;;;;;7.25;3.67;;;;;;;;;;4994112;28;20047;-85
2022/08/19 09:21:38;;;;;;;9.88;3.53;;;;;;;;;;4982464;28;20043;-84
2022/08/19 09:24:23;;;;;;;6.82;3.50;;;;;;;;;;4990524;28;20046;-83
2022/08/19 09:27:09;;;;;;;7.47;2.88;;;;;;;;;;4981634;28;20046;-85
2022/08/19 09:29:55;;;;;;;8.68;3.17;;;;;;;;;;4974822;28;20043;-83
2022/08/19 09:32:42;;;;;;;7.45;2.90;;;;;;;;;;4974767;28;20038;-82
2022/08/19 09:35:29;;;;;;;5.93;2.75;;;;;;;;;;4974978;28;20051;-84
2022/08/19 09:38:14;;;;;;;4.05;2.75;;;;;;;;;;4981053;28;20050;-84
2022/08/19 09:41:05;;;;;;;4.72;2.90;;;;;;;;;;4974786;28;20051;-84
2022/08/19 09:43:55;;;;;;;9.43;2.95;;;;;;;;;;4975331;28;20051;-82
2022/08/19 09:46:41;;;;;;;6.70;3.10;;;;;;;;;;4980877;28;20046;-83
2022/08/19 09:49:27;;;;;;;4.95;2.75;;;;;;;;;;4981301;28;20072;-83
2022/08/19 09:52:12;;;;;;;6.03;3.20;;;;;;;;;;4974389;28;20043;-84
2022/08/19 09:54:57;;;;;;;5.78;2.78;;;;;;;;;;4973617;28;20046;-84
2022/08/19 09:57:42;;;;;;;5.07;3.08;;;;;;;;;;4974819;28;20455;-84
2022/08/19 10:00:28;;;;;;;7.70;2.85;;;;;;;;;;4974325;28;20050;-85
2022/08/19 10:03:14;;;;;;;4.35;2.70;;;;;;;;;;4974368;28;20043;-83
2022/08/19 10:06:01;;;;;;;6.53;2.92;;;;;;;;;;4963974;28;20042;-83
2022/08/19 10:08:51;;;;;;;5.63;3.00;;;;;;;;;;4985489;28;20406;-83
2022/08/19 10:11:41;;;;;;;6.07;3.10;;;;;;;;;;4981266;28;20410;-85
2022/08/19 10:14:27;;;;;;;7.40;3.22;;;;;;;;;;4985909;28;20050;-87
2022/08/19 10:17:12;;;;;;;6.45;2.60;;;;;;;;;;4984616;28;20045;-84
2022/08/19 10:20:04;;;;;;;5.65;2.60;;;;;;;;;;4986423;28;20047;-85
2022/08/19 10:22:50;;;;;;;6.53;2.60;;;;;;;;;;4986386;28;20035;-84
2022/08/19 10:25:35;;;;;;;5.00;3.10;;;;;;;;;;4990478;28;20047;-83
2022/08/19 10:28:21;;;;;;;6.55;2.95;;;;;;;;;;4995522;28;20038;-84
2022/08/19 10:31:09;;;;;;;6.15;3.00;;;;;;;;;;4993900;28;20398;-83
2022/08/19 10:33:58;;;;;;;6.47;2.63;;;;;;;;;;4984091;28;20047;-84
2022/08/19 10:36:45;;;;;;;5.00;2.97;;;;;;;;;;4984555;28;20482;-83
2022/08/19 10:39:31;;;;;;;5.88;2.88;;;;;;;;;;5001558;28;20072;-83
2022/08/19 10:42:18;;;;;;;8.27;3.30;;;;;;;;;;5004998;28;20474;-84
2022/08/19 10:45:05;;;;;;;5.72;3.22;;;;;;;;;;4982836;28;20042;-84
2022/08/19 10:47:55;;;;;;;6.88;3.08;;;;;;;;;;4995855;28;20042;-85
2022/08/19 10:53:44;;;;;;;6.57;3.27;;;;;;;;;;4983260;28;20043;-83
2022/08/19 10:59:35;;;;;;;9.43;3.53;;;;;;;;;;4982027;28;20475;-83
2022/08/19 11:02:22;;;;;;;6.32;3.10;;;;;;;;;;4977318;28;20493;-84
2022/08/19 11:05:10;;;;;;;8.43;3.35;;;;;;;;;;4983478;28;20046;-83
2022/08/19 11:07:55;;;;;;;11.10;3.88;;;;;;;;;;4976961;28;20043;-84
2022/08/19 11:10:43;;;;;;;5.70;3.60;;;;;;;;;;4983106;28;20406;-81
2022/08/19 11:13:33;;;;;;;4.18;3.20;;;;;;;;;;4976981;28;20047;-80
2022/08/19 11:16:22;;;;;;;7.20;3.53;;;;;;;;;;4976452;28;20050;-82
2022/08/19 11:19:09;;;;;;;4.65;3.72;;;;;;;;;;4983464;28;20042;-83
2022/08/19 11:21:55;;;;;;;12.60;4.57;;;;;;;;;;4983010;28;20046;-82
2022/08/19 11:24:41;;;;;;;7.80;3.40;;;;;;;;;;4976036;28;20051;-82
2022/08/19 11:27:26;;;;;;;5.85;3.50;;;;;;;;;;4976759;28;20051;-82
2022/08/19 11:30:13;;;;;;;5.15;3.50;;;;;;;;;;4983016;28;20043;-83
2022/08/19 11:33:00;;;;;;;6.70;3.35;;;;;;;;;;4983297;28;20495;-85
2022/08/19 11:35:46;;;;;;;6.82;4.63;;;;;;;;;;4976555;28;20043;-83
2022/08/19 11:38:31;;;;;;;6.43;3.17;;;;;;;;;;4976363;28;20050;-85
2022/08/19 11:41:19;;;;;;;6.15;3.58;;;;;;;;;;4982701;28;20470;-82
2022/08/19 11:44:07;;;;;;;8.15;3.90;;;;;;;;;;4975960;28;20046;-84
2022/08/19 11:46:52;;;;;;;6.65;3.25;;;;;;;;;;4982750;28;20062;-82
2022/08/19 11:49:38;;;;;;;8.38;3.58;;;;;;;;;;4976225;28;20038;-82
2022/08/19 11:52:23;;;;;;;8.27;3.63;;;;;;;;;;4976058;28;20051;-86
2022/08/19 11:55:09;;;;;;;8.73;3.97;;;;;;;;;;4976289;28;20046;-81
2022/08/19 11:57:54;;;;;;;7.38;3.72;;;;;;;;;;4979777;28;20051;-81
2022/08/19 12:00:40;;;;;;;7.55;3.75;;;;;;;;;;4956678;29;20491;-81
2022/08/19 12:03:27;;;;;;;8.18;3.70;;;;;;;;;;4963122;28;20055;-83
2022/08/19 12:06:15;;;;;;;9.73;3.90;;;;;;;;;;4962987;28;20391;-81
2022/08/19 12:09:05;;;;;;;9.38;4.07;;;;;;;;;;4957449;29;20047;-82
2022/08/19 12:11:50;;;;;;;6.93;3.47;;;;;;;;;;4957374;29;20055;-81
2022/08/19 12:14:36;;;;;;;9.10;3.90;;;;;;;;;;4959347;28;20051;-83
2022/08/19 12:17:28;;;;;;;12.63;3.80;;;;;;;;;;4968007;28;20411;-82
2022/08/19 12:20:15;;;;;;;7.70;3.20;;;;;;;;;;4947353;28;20048;-83
2022/08/19 12:23:00;;;;;;;6.38;3.72;;;;;;;;;;4961379;28;20043;-81
2022/08/19 12:25:52;;;;;;;7.07;3.40;;;;;;;;;;4956127;29;20039;-82
2022/08/19 12:28:37;;;;;;;12.60;4.55;;;;;;;;;;4961682;28;20055;-83
2022/08/19 12:31:23;;;;;;;10.80;3.92;;;;;;;;;;4956269;29;20483;-83
2022/08/19 12:34:09;;;;;;;10.73;4.32;;;;;;;;;;4947953;28;20055;-83
2022/08/19 12:36:54;;;;;;;7.72;3.58;;;;;;;;;;4962350;28;20450;-80
2022/08/19 12:39:42;;;;;;;6.82;3.42;;;;;;;;;;4955418;29;20507;-81
2022/08/19 12:42:27;;;;;;;7.50;3.90;;;;;;;;;;4955543;29;20039;-83
2022/08/19 12:45:13;;;;;;;8.95;3.75;;;;;;;;;;4955542;29;20039;-84
2022/08/19 12:47:59;;;;;;;7.75;3.88;;;;;;;;;;4955811;29;20043;-81
2022/08/19 12:50:45;;;;;;;5.45;2.90;;;;;;;;;;4955950;29;20039;-84
2022/08/19 12:53:30;;;;;;;7.50;3.60;;;;;;;;;;4962083;28;20051;-84
2022/08/19 12:56:18;;;;;;;5.68;3.50;;;;;;;;;;4961821;28;20055;-83
2022/08/19 12:59:08;;;;;;;7.32;3.63;;;;;;;;;;4965269;28;20046;-85
2022/08/19 13:01:55;;;;;;;9.20;3.92;;;;;;;;;;4982797;28;21191;-82
2022/08/19 13:04:43;;;;;;;8.88;3.70;;;;;;;;;;4988668;28;20039;-83
2022/08/19 13:07:28;;;;;;;6.55;3.50;;;;;;;;;;4980874;28;20389;-82
2022/08/19 13:10:17;;;;;;;7.43;3.30;;;;;;;;;;5000542;28;20058;-82
2022/08/19 13:13:09;;;;;;;6.55;3.17;;;;;;;;;;4987376;28;20038;-82
2022/08/19 13:16:04;;;;;;;8.48;3.72;;;;;;;;;;4984921;28;20043;-84
2022/08/19 13:18:51;;;;;;;6.97;3.30;;;;;;;;;;4982279;28;20055;-82
2022/08/19 13:21:37;;;;;;;5.82;3.20;;;;;;;;;;4984242;28;20038;-80
2022/08/19 13:24:22;;;;;;;7.82;3.38;;;;;;;;;;4983091;28;20055;-83
2022/08/19 13:27:08;;;;;;;7.03;3.42;;;;;;;;;;4981251;28;20058;-81
2022/08/19 13:33:15;;;;;;;7.15;3.22;;;;;;;;;;4975835;28;20039;-81
2022/08/19 13:36:01;;;;;;;11.07;3.72;;;;;;;;;;4983774;28;20498;-82
2022/08/19 13:38:51;;;;;;;6.03;3.00;;;;;;;;;;4987023;28;20050;-81
2022/08/19 13:41:38;;;;;;;7.43;3.53;;;;;;;;;;4965211;28;20482;-82
2022/08/19 13:44:23;;;;;;;5.03;2.88;;;;;;;;;;4981917;28;20050;-82
2022/08/19 13:47:12;;;;;;;5.97;3.17;;;;;;;;;;4974519;28;20043;-84
2022/08/19 13:49:57;;;;;;;7.50;3.22;;;;;;;;;;4974244;28;20042;-82
2022/08/19 13:52:43;;;;;;;15.05;3.60;;;;;;;;;;4974393;28;20043;-83
2022/08/19 13:55:30;;;;;;;4.97;3.00;;;;;;;;;;4974533;28;20043;-82
2022/08/19 13:58:15;;;;;;;7.93;3.42;;;;;;;;;;4981044;28;20437;-82
2022/08/19 14:01:01;;;;;;;6.93;3.10;;;;;;;;;;4978110;28;20490;-82
2022/08/19 14:03:47;;;;;;;8.35;3.22;;;;;;;;;;4978539;28;20046;-82
2022/08/19 14:06:32;;;;;;;9.48;3.20;;;;;;;;;;4970697;28;20043;-82
2022/08/19 14:09:18;;;;;;;9.25;3.25;;;;;;;;;;4984631;28;20046;-86
2022/08/19 14:12:04;;;;;;;5.55;3.08;;;;;;;;;;4977583;28;20499;-83
2022/08/19 14:14:49;;;;;;;6.90;3.28;;;;;;;;;;4978033;28;20051;-83
2022/08/19 14:17:39;;;;;;;4.05;3.00;;;;;;;;;;4978261;28;20046;-83
2022/08/19 14:20:24;;;;;;;9.70;3.45;;;;;;;;;;4977706;28;20398;-82
2022/08/19 14:23:12;;;;;;;5.05;3.33;;;;;;;;;;4980130;28;20042;-82
2022/08/19 14:26:06;;;;;;;8.07;2.97;;;;;;;;;;5002631;28;20050;-85
2022/08/19 14:28:52;;;;;;;11.07;3.35;;;;;;;;;;4993347;28;20046;-85
2022/08/19 14:31:39;;;;;;;6.22;2.92;;;;;;;;;;4997693;28;20046;-85
2022/08/19 14:34:26;;;;;;;4.63;3.08;;;;;;;;;;4997286;28;20046;-85
2022/08/19 14:37:14;;;;;;;9.30;3.60;;;;;;;;;;5003451;28;20042;-84
2022/08/19 14:39:59;;;;;;;8.15;3.88;;;;;;;;;;4997042;28;20042;-85
2022/08/19 14:42:45;;;;;;;5.45;3.25;;;;;;;;;;4996664;28;20046;-84
2022/08/19 14:45:35;;;;;;;10.60;3.38;;;;;;;;;;4997024;28;20046;-85
2022/08/19 14:48:21;;;;;;;6.07;3.30;;;;;;;;;;4996524;28;20050;-83
2022/08/19 14:51:07;;;;;;;9.32;3.63;;;;;;;;;;5003442;28;20046;-83
2022/08/19 14:53:52;;;;;;;11.32;3.72;;;;;;;;;;4996264;28;20050;-83
2022/08/19 14:56:41;;;;;;;10.10;3.92;;;;;;;;;;4983717;28;20055;-83
2022/08/19 14:59:26;;;;;;;12.57;3.70;;;;;;;;;;4985894;28;20047;-84
2022/08/19 15:02:12;;;;;;;12.93;4.10;;;;;;;;;;4983530;28;20474;-84
2022/08/19 15:04:57;;;;;;;14.90;4.32;;;;;;;;;;4983646;28;20046;-84
2022/08/19 15:07:43;;;;;;;10.90;3.72;;;;;;;;;;4996910;28;20051;-81
2022/08/19 15:10:28;;;;;;;17.70;4.30;;;;;;;;;;4995229;28;20042;-82
2022/08/19 15:13:14;;;;;;;8.57;3.42;;;;;;;;;;4996642;28;20050;-84
2022/08/19 15:16:00;;;;;;;9.20;4.13;;;;;;;;;;4996217;28;20054;-80
2022/08/19 15:18:49;;;;;;;16.58;6.40;;;;;;;;;;4996286;28;20046;-80
2022/08/19 15:21:36;;;;;;;7.78;4.60;;;;;;;;;;4996418;28;20481;-84
2022/08/19 15:24:22;;;;;;;9.18;4.68;;;;;;;;;;4993071;28;20047;-82
2022/08/19 15:27:08;;;;;;;16.05;3.35;;;;;;;;;;4995544;28;20475;-83
2022/08/19 15:29:53;;;;;;;13.05;4.10;;;;;;;;;;4984635;28;20490;-80
2022/08/19 15:32:39;;;;;;;14.27;5.60;;;;;;;;;;5002637;28;20417;-80
2022/08/19 15:35:25;;;;;;;24.92;5.55;;;;;;;;;;4987676;28;20054;-81
2022/08/19 15:38:12;;;;;;;14.40;4.68;;;;;;;;;;4995141;28;20046;-79
2022/08/19 15:41:22;;;;;;;19.83;5.65;;;;;;;;;;4996177;28;20401;-82
2022/08/19 15:44:10;;;;;;;18.10;6.32;;;;;;;;;;4995523;28;20051;-79
2022/08/19 15:46:56;;;;;;;13.02;5.70;;;;;;;;;;4992638;28;20046;-80
2022/08/19 15:49:41;;;;;;;12.80;4.75;;;;;;;;;;5002207;28;20046;-83
2022/08/19 15:52:27;;;;;;;13.18;4.78;;;;;;;;;;5000676;28;20046;-82
2022/08/19 15:55:12;;;;;;;13.93;4.18;;;;;;;;;;5002248;28;20054;-83
2022/08/19 16:07:13;;;;;;;21.90;6.95;;;;;;;;;;4986604;28;20050;-82
2022/08/19 16:09:58;;;;;;;19.70;7.60;;;;;;;;;;4983756;28;20046;-81
2022/08/19 16:12:44;;;;;;;21.10;8.25;;;;;;;;;;4995305;28;20050;-82
2022/08/19 16:15:30;;;;;;;26.45;7.20;;;;;;;;;;4986664;28;20042;-82
2022/08/19 16:18:16;;;;;;;24.70;8.30;;;;;;;;;;4995444;28;20046;-83
2022/08/19 16:21:02;;;;;;;18.63;8.82;;;;;;;;;;4980500;28;20414;-82
2022/08/19 16:23:48;;;;;;;20.30;7.55;;;;;;;;;;4985331;28;20038;-84
2022/08/19 16:26:34;;;;;;;20.65;6.97;;;;;;;;;;5000432;28;20043;-78
2022/08/19 16:29:21;;;;;;;17.60;6.97;;;;;;;;;;4989569;28;20405;-82
2022/08/19 16:32:10;;;;;;;19.02;6.82;;;;;;;;;;4996090;28;20034;-82
2022/08/19 16:34:54;;;;;;;28.52;7.38;;;;;;;;;;4985995;28;20042;-83
2022/08/19 16:37:40;;;;;;;23.17;8.35;;;;;;;;;;4986373;28;20505;-81
2022/08/19 16:40:26;;;;;;;23.75;10.75;;;;;;;;;;4999251;28;20050;-81
2022/08/19 16:43:12;;;;;;;18.80;8.73;;;;;;;;;;4992497;28;20069;-82
2022/08/19 16:45:58;;;;;;;21.17;7.90;;;;;;;;;;4985196;28;20038;-81
2022/08/19 16:48:44;;;;;;;16.20;5.75;;;;;;;;;;4992623;28;20046;-81
2022/08/19 16:51:32;;;;;;;18.73;7.28;;;;;;;;;;4993038;28;20050;-81
2022/08/19 16:54:18;;;;;;;21.17;7.82;;;;;;;;;;4993643;28;20050;-82
2022/08/19 16:57:05;;;;;;;21.95;6.97;;;;;;;;;;4986565;28;20055;-81
2022/08/19 16:59:51;;;;;;;22.70;7.10;;;;;;;;;;4981394;28;20050;-82
2022/08/19 17:02:38;;;;;;;18.13;7.25;;;;;;;;;;4988613;28;20043;-81
2022/08/19 17:05:23;;;;;;;24.85;8.50;;;;;;;;;;4993945;28;20042;-82